createdAt,value
2023-02-17T00:01:59.535Z,8.00
2023-02-17T00:05:53.038Z,9.70
2023-02-17T00:09:42.534Z,8.20
2023-02-17T00:13:36.361Z,12.10
2023-02-17T00:17:31.473Z,10.10
2023-02-17T00:21:25.035Z,9.80
2023-02-17T00:25:20.046Z,12.80
2023-02-17T00:29:13.675Z,15.30
2023-02-17T00:33:15.051Z,13.90
2023-02-17T00:37:08.877Z,11.70
2023-02-17T00:41:00.702Z,12.50
2023-02-17T00:44:53.968Z,11.40
2023-02-17T00:48:47.637Z,16.00
2023-02-17T00:52:37.180Z,11.10
2023-02-17T00:56:30.999Z,17.10
2023-02-17T01:03:52.978Z,15.30
2023-02-17T01:07:47.169Z,13.90
2023-02-17T01:11:39.702Z,15.20
2023-02-17T01:15:31.191Z,15.60
2023-02-17T01:19:24.566Z,13.50
2023-02-17T01:23:22.641Z,13.70
2023-02-17T01:27:13.872Z,18.80
2023-02-17T01:31:11.698Z,16.70
2023-02-17T01:35:04.034Z,16.10
2023-02-17T01:39:02.042Z,12.90
2023-02-17T01:42:54.234Z,8.60
2023-02-17T01:46:47.590Z,13.30
2023-02-17T01:50:39.847Z,10.50
2023-02-17T01:54:35.984Z,10.70
2023-02-17T01:58:27.987Z,10.50
2023-02-17T02:02:21.649Z,17.20
2023-02-17T02:09:48.919Z,12.50
2023-02-17T02:13:43.750Z,15.70
2023-02-17T02:17:37.050Z,9.20
2023-02-17T02:21:30.849Z,11.20
2023-02-17T02:25:27.175Z,12.90
2023-02-17T02:29:20.807Z,9.20
2023-02-17T02:33:12.940Z,11.50
2023-02-17T02:37:04.470Z,8.10
2023-02-17T02:40:59.096Z,9.50
2023-02-17T02:44:50.609Z,16.00
2023-02-17T02:48:42.734Z,8.30
2023-02-17T02:52:34.142Z,9.20
2023-02-17T02:56:26.047Z,11.60
2023-02-17T03:00:19.343Z,12.20
2023-02-17T03:04:14.833Z,9.70
2023-02-17T03:08:09.252Z,10.90
2023-02-17T03:12:04.752Z,12.30
2023-02-17T03:15:59.215Z,12.00
2023-02-17T03:19:54.618Z,8.30
2023-02-17T03:23:47.790Z,13.10
2023-02-17T03:27:43.630Z,12.70
2023-02-17T03:31:37.190Z,10.90
2023-02-17T03:35:29.328Z,12.40
2023-02-17T03:39:20.400Z,8.50
2023-02-17T03:43:12.529Z,9.00
2023-02-17T03:47:04.025Z,12.40
2023-02-17T03:50:56.229Z,9.00
2023-02-17T03:54:58.742Z,11.10
2023-02-17T03:58:51.261Z,10.20
2023-02-17T04:02:50.705Z,11.80
2023-02-17T04:06:39.862Z,9.50
2023-02-17T04:10:29.208Z,12.20
2023-02-17T04:14:14.639Z,10.60
2023-02-17T04:18:05.865Z,13.50
2023-02-17T04:22:05.472Z,15.20
2023-02-17T04:26:05.989Z,11.90
2023-02-17T04:30:04.381Z,8.90
2023-02-17T04:34:03.818Z,9.30
2023-02-17T04:38:01.213Z,17.20
2023-02-17T04:42:00.991Z,12.70
2023-02-17T04:45:56.486Z,10.60
2023-02-17T04:49:42.077Z,11.60
2023-02-17T04:53:27.520Z,9.80
2023-02-17T04:57:13.216Z,13.10
2023-02-17T05:01:05.483Z,14.10
2023-02-17T05:05:04.956Z,14.10
2023-02-17T05:09:03.057Z,16.10
2023-02-17T05:13:02.910Z,12.40
2023-02-17T05:17:02.380Z,16.70
2023-02-17T05:21:00.280Z,12.10
2023-02-17T05:24:58.586Z,22.40
2023-02-17T05:28:44.040Z,19.40
2023-02-17T05:32:29.665Z,16.80
2023-02-17T05:36:15.022Z,14.10
2023-02-17T05:40:00.185Z,16.40
2023-02-17T05:43:49.499Z,18.40
2023-02-17T05:47:41.098Z,18.80
2023-02-17T05:51:33.547Z,19.20
2023-02-17T05:55:24.722Z,16.00
2023-02-17T05:59:25.098Z,16.90
2023-02-17T06:03:23.402Z,17.60
2023-02-17T06:07:24.068Z,20.50
2023-02-17T06:11:21.204Z,18.90
2023-02-17T06:15:21.116Z,17.80
2023-02-17T06:19:18.421Z,17.20
2023-02-17T06:23:17.980Z,20.60
2023-02-17T06:27:03.954Z,21.10
2023-02-17T06:30:49.148Z,19.30
2023-02-17T06:34:34.499Z,21.60
2023-02-17T06:38:19.747Z,20.60
2023-02-17T06:42:04.985Z,25.60
2023-02-17T06:45:51.491Z,22.30
2023-02-17T06:49:37.024Z,27.80
2023-02-17T06:53:38.089Z,26.80
2023-02-17T06:57:35.346Z,32.80
2023-02-17T07:01:35.285Z,28.60
2023-02-17T07:05:33.604Z,23.60
2023-02-17T07:09:34.069Z,27.80
2023-02-17T07:13:32.473Z,35.60
2023-02-17T07:17:32.171Z,42.90
2023-02-17T07:21:29.540Z,29.50
2023-02-17T07:25:30.217Z,29.50
2023-02-17T07:29:28.555Z,26.20
2023-02-17T07:33:28.160Z,26.60
2023-02-17T07:37:29.699Z,21.70
2023-02-17T07:41:30.265Z,20.70
2023-02-17T07:45:28.479Z,22.50
2023-02-17T07:49:29.301Z,31.50
2023-02-17T07:53:27.578Z,28.30
2023-02-17T07:57:28.275Z,25.30
2023-02-17T08:01:26.393Z,22.60
2023-02-17T08:05:29.526Z,20.10
2023-02-17T08:09:29.306Z,18.20
2023-02-17T08:13:25.385Z,21.00
2023-02-17T08:17:25.922Z,15.10
2023-02-17T08:21:21.399Z,19.60
2023-02-17T08:25:21.460Z,14.20
2023-02-17T08:29:19.847Z,17.10
2023-02-17T08:33:19.304Z,15.30
2023-02-17T08:37:15.454Z,20.10
2023-02-17T08:41:14.868Z,25.20
2023-02-17T08:45:11.651Z,17.90
2023-02-17T08:49:11.175Z,14.50
2023-02-17T08:53:06.838Z,15.70
2023-02-17T08:57:06.743Z,18.30
2023-02-17T09:01:02.732Z,16.80
2023-02-17T09:05:03.179Z,20.00
2023-02-17T09:08:59.653Z,17.80
2023-02-17T09:12:59.837Z,19.80
2023-02-17T09:16:55.712Z,17.00
2023-02-17T09:20:58.315Z,17.30
2023-02-17T09:24:53.425Z,15.80
2023-02-17T09:28:53.538Z,21.70
2023-02-17T09:32:49.474Z,22.10
2023-02-17T09:36:50.614Z,21.90
2023-02-17T09:40:46.845Z,19.50
2023-02-17T09:44:47.154Z,15.40
2023-02-17T09:48:44.072Z,19.40
2023-02-17T09:52:43.704Z,18.80
2023-02-17T09:56:39.843Z,14.90
2023-02-17T10:00:33.786Z,18.70
2023-02-17T10:04:29.077Z,15.80
2023-02-17T10:08:22.772Z,18.10
2023-02-17T10:12:14.924Z,19.50
2023-02-17T10:16:09.266Z,21.00
2023-02-17T10:20:09.660Z,16.20
2023-02-17T10:24:03.180Z,23.20
2023-02-17T10:27:58.429Z,22.30
2023-02-17T10:31:51.846Z,18.00
2023-02-17T10:39:16.874Z,18.00
2023-02-17T10:43:10.421Z,15.50
2023-02-17T10:47:02.188Z,14.70
2023-02-17T10:50:57.477Z,14.20
2023-02-17T10:54:48.910Z,15.50
2023-02-17T10:58:43.328Z,13.00
2023-02-17T11:02:38.983Z,13.10
2023-02-17T11:06:30.847Z,14.70
2023-02-17T11:10:28.394Z,14.80
2023-02-17T11:14:20.970Z,16.10
2023-02-17T11:18:14.374Z,13.00
2023-02-17T11:22:05.615Z,13.80
2023-02-17T11:26:03.807Z,14.70
2023-02-17T11:29:55.654Z,14.50
2023-02-17T11:33:56.986Z,12.60
2023-02-17T11:37:51.555Z,15.90
2023-02-17T11:41:50.711Z,17.20
2023-02-17T11:45:42.128Z,15.90
2023-02-17T11:49:36.602Z,14.10
2023-02-17T11:52:33.592Z,13.70
2023-02-17T11:55:28.366Z,16.20
2023-02-17T11:58:44.850Z,19.70
2023-02-17T12:01:54.612Z,17.40
2023-02-17T12:05:02.102Z,17.20
2023-02-17T12:08:28.748Z,18.40
2023-02-17T12:11:32.379Z,21.90
2023-02-17T12:14:43.405Z,23.10
2023-02-17T12:18:05.189Z,20.60
2023-02-17T12:21:09.210Z,25.30
2023-02-17T12:24:24.371Z,19.10
2023-02-17T12:27:19.131Z,19.00
2023-02-17T12:30:17.361Z,15.90
2023-02-17T12:33:16.006Z,18.60
2023-02-17T12:36:06.827Z,24.20
2023-02-17T12:38:59.232Z,19.00
2023-02-17T12:41:54.064Z,19.00
2023-02-17T12:44:49.994Z,20.90
2023-02-17T12:47:46.593Z,18.50
2023-02-17T12:50:50.514Z,17.60
2023-02-17T12:53:53.013Z,20.10
2023-02-17T12:56:48.352Z,20.60
2023-02-17T12:59:45.066Z,18.50
2023-02-17T13:02:34.586Z,17.10
2023-02-17T13:05:27.004Z,15.90
2023-02-17T13:08:33.714Z,17.60
2023-02-17T13:11:31.688Z,18.40
2023-02-17T13:14:28.331Z,13.30
2023-02-17T13:17:31.329Z,13.40
2023-02-17T13:20:20.193Z,14.50
2023-02-17T13:23:12.236Z,14.20
2023-02-17T13:26:19.478Z,13.90
2023-02-17T13:29:32.355Z,13.70
2023-02-17T13:35:29.540Z,15.90
2023-02-17T13:38:31.502Z,15.50
2023-02-17T13:41:20.299Z,18.70
2023-02-17T13:44:25.841Z,14.40
2023-02-17T13:47:17.347Z,17.40
2023-02-17T13:50:07.193Z,17.50
2023-02-17T13:52:56.271Z,13.40
2023-02-17T13:55:45.031Z,16.20
2023-02-17T13:58:38.936Z,13.30
2023-02-17T14:01:28.912Z,16.40
2023-02-17T14:04:38.207Z,15.60
2023-02-17T14:07:26.939Z,15.70
2023-02-17T14:10:19.248Z,13.40
2023-02-17T14:13:10.997Z,16.90
2023-02-17T14:16:00.310Z,17.50
2023-02-17T14:18:49.374Z,14.20
2023-02-17T14:21:43.944Z,15.20
2023-02-17T14:24:34.685Z,16.10
2023-02-17T14:27:23.765Z,12.10
2023-02-17T14:30:30.357Z,13.70
2023-02-17T14:33:25.460Z,15.20
2023-02-17T14:36:27.081Z,14.10
2023-02-17T14:39:16.598Z,16.80
2023-02-17T14:42:06.140Z,20.30
2023-02-17T14:44:55.234Z,14.40
2023-02-17T14:47:45.985Z,19.80
2023-02-17T14:50:35.356Z,13.30
2023-02-17T14:53:28.136Z,12.80
2023-02-17T14:56:34.354Z,19.70
2023-02-17T14:59:23.274Z,17.20
2023-02-17T15:02:19.355Z,16.80
2023-02-17T15:05:08.285Z,17.50
2023-02-17T15:07:58.603Z,16.60
2023-02-17T15:10:49.622Z,17.50
2023-02-17T15:13:38.511Z,22.30
2023-02-17T15:16:33.184Z,18.30
2023-02-17T15:19:22.104Z,16.10
2023-02-17T15:22:16.535Z,25.80
2023-02-17T15:25:14.498Z,24.00
2023-02-17T15:28:04.229Z,18.20
2023-02-17T15:30:54.856Z,21.30
2023-02-17T15:33:44.132Z,22.50
2023-02-17T15:36:33.152Z,22.20
2023-02-17T15:39:22.517Z,20.50
2023-02-17T15:42:14.316Z,19.80
2023-02-17T15:45:03.372Z,16.50
2023-02-17T15:47:58.216Z,18.20
2023-02-17T15:50:47.429Z,21.40
2023-02-17T15:53:37.141Z,22.30
2023-02-17T15:56:27.823Z,19.80
2023-02-17T15:59:19.575Z,23.20
2023-02-17T16:02:22.449Z,20.60
2023-02-17T16:05:14.641Z,38.60
2023-02-17T16:08:04.274Z,35.20
2023-02-17T16:10:55.720Z,24.60
2023-02-17T16:13:45.399Z,22.80
2023-02-17T16:16:34.238Z,21.10
2023-02-17T16:19:23.362Z,24.40
2023-02-17T16:22:12.356Z,23.50
2023-02-17T16:25:21.509Z,27.50
2023-02-17T16:28:20.665Z,26.80
2023-02-17T16:31:10.716Z,40.10
2023-02-17T16:34:00.517Z,26.20
2023-02-17T16:36:51.253Z,24.60
2023-02-17T16:39:40.211Z,25.00
2023-02-17T16:42:29.322Z,29.20
2023-02-17T16:45:19.933Z,26.20
2023-02-17T16:48:09.052Z,26.00
2023-02-17T16:51:03.154Z,23.30
2023-02-17T16:53:52.625Z,27.10
2023-02-17T16:56:48.530Z,24.30
2023-02-17T16:59:40.329Z,24.60
2023-02-17T17:02:29.336Z,23.20
2023-02-17T17:05:19.839Z,24.30
2023-02-17T17:08:16.584Z,27.50
2023-02-17T17:11:06.099Z,32.50
2023-02-17T17:13:55.483Z,29.50
2023-02-17T17:16:51.165Z,30.90
2023-02-17T17:19:40.329Z,27.20
2023-02-17T17:22:29.528Z,26.00
2023-02-17T17:25:19.176Z,24.50
2023-02-17T17:28:08.647Z,25.30
2023-02-17T17:30:57.513Z,71.10
2023-02-17T17:33:48.553Z,27.50
2023-02-17T17:36:46.654Z,25.00
2023-02-17T17:39:40.240Z,55.40
2023-02-17T17:42:29.355Z,55.40
2023-02-17T17:45:19.382Z,62.80
2023-02-17T17:48:13.976Z,37.30
2023-02-17T17:51:03.535Z,35.20
2023-02-17T17:53:53.033Z,33.90
2023-02-17T17:56:43.230Z,33.30
2023-02-17T17:59:34.072Z,30.30
2023-02-17T18:02:25.800Z,24.70
2023-02-17T18:05:14.754Z,27.30
2023-02-17T18:08:04.210Z,41.70
2023-02-17T18:10:53.238Z,39.20
2023-02-17T18:13:44.187Z,89.00
2023-02-17T18:16:33.367Z,102.60
2023-02-17T18:19:25.080Z,53.40
2023-02-17T18:22:14.524Z,50.10
2023-02-17T18:25:08.994Z,49.90
2023-02-17T18:27:58.225Z,31.90
2023-02-17T18:30:47.427Z,33.80
2023-02-17T18:33:38.077Z,41.00
2023-02-17T18:36:27.336Z,31.40
2023-02-17T18:39:18.333Z,31.20
2023-02-17T18:42:07.229Z,23.60
2023-02-17T18:44:56.866Z,30.10
2023-02-17T18:47:46.458Z,29.80
2023-02-17T18:50:36.058Z,26.10
2023-02-17T18:53:24.950Z,31.40
2023-02-17T18:56:17.098Z,30.40
2023-02-17T18:59:06.083Z,24.80
2023-02-17T19:01:55.047Z,28.80
2023-02-17T19:04:46.613Z,51.10
2023-02-17T19:07:35.796Z,34.40
2023-02-17T19:10:25.126Z,27.10
2023-02-17T19:13:13.960Z,24.70
2023-02-17T19:16:08.624Z,26.00
2023-02-17T19:18:57.932Z,28.80
2023-02-17T19:21:47.565Z,34.80
2023-02-17T19:24:37.242Z,37.60
2023-02-17T19:27:26.045Z,31.90
2023-02-17T19:30:15.247Z,35.40
2023-02-17T19:33:08.612Z,33.00
2023-02-17T19:35:59.682Z,37.20
2023-02-17T19:38:50.210Z,33.90
2023-02-17T19:41:39.090Z,44.90
2023-02-17T19:44:28.069Z,46.50
2023-02-17T19:47:16.970Z,43.80
2023-02-17T19:50:06.854Z,71.50
2023-02-17T19:52:55.811Z,52.70
2023-02-17T19:55:45.202Z,47.20
2023-02-17T19:58:36.539Z,37.20
2023-02-17T20:01:27.448Z,41.80
2023-02-17T20:04:16.765Z,41.20
2023-02-17T20:07:07.013Z,39.50
2023-02-17T20:09:59.415Z,38.40
2023-02-17T20:12:48.832Z,41.60
2023-02-17T20:15:37.638Z,33.00
2023-02-17T20:18:26.840Z,34.10
2023-02-17T20:21:24.061Z,35.50
2023-02-17T20:24:14.242Z,36.70
2023-02-17T20:27:03.464Z,38.00
2023-02-17T20:29:53.899Z,31.70
2023-02-17T20:32:42.815Z,36.30
2023-02-17T20:35:35.522Z,35.10
2023-02-17T20:38:25.846Z,38.30
2023-02-17T20:41:16.994Z,50.40
2023-02-17T20:44:06.510Z,36.90
2023-02-17T20:46:56.132Z,43.20
2023-02-17T20:49:45.305Z,43.60
2023-02-17T20:52:34.375Z,43.30
2023-02-17T20:55:47.401Z,45.00
2023-02-17T20:58:40.612Z,43.20
2023-02-17T21:01:32.362Z,52.80
2023-02-17T21:04:23.646Z,49.30
2023-02-17T21:07:12.898Z,62.00
2023-02-17T21:10:02.506Z,47.40
2023-02-17T21:12:51.810Z,68.10
2023-02-17T21:15:45.149Z,84.70
2023-02-17T21:18:35.874Z,78.70
2023-02-17T21:21:24.931Z,60.40
2023-02-17T21:24:14.326Z,57.70
2023-02-17T21:27:03.314Z,56.50
2023-02-17T21:29:52.225Z,59.70
2023-02-17T21:32:41.126Z,76.60
2023-02-17T21:35:30.210Z,49.30
2023-02-17T21:38:21.661Z,69.80
2023-02-17T21:41:13.414Z,52.20
2023-02-17T21:44:21.607Z,59.30
2023-02-17T21:47:10.528Z,62.30
2023-02-17T21:50:01.518Z,53.40
2023-02-17T21:52:56.863Z,42.30
2023-02-17T21:55:46.425Z,53.60
2023-02-17T21:58:35.547Z,64.00
2023-02-17T22:01:26.194Z,36.90
2023-02-17T22:04:15.517Z,51.90
2023-02-17T22:07:04.788Z,130.20
2023-02-17T22:09:54.033Z,49.90
2023-02-17T22:12:44.475Z,42.20
2023-02-17T22:15:34.240Z,41.00
2023-02-17T22:18:24.433Z,48.30
2023-02-17T22:21:14.092Z,47.70
2023-02-17T22:24:03.922Z,47.90
2023-02-17T22:26:53.168Z,55.80
2023-02-17T22:29:42.196Z,49.30
2023-02-17T22:33:36.680Z,39.10
2023-02-17T22:37:29.388Z,34.30
2023-02-17T22:41:24.703Z,35.60
2023-02-17T22:45:19.948Z,46.50
2023-02-17T22:49:13.291Z,38.70
2023-02-17T22:53:08.617Z,33.70
2023-02-17T22:57:05.612Z,39.70
2023-02-17T23:00:56.701Z,42.20
2023-02-17T23:04:51.225Z,33.70
2023-02-17T23:08:43.931Z,32.20
2023-02-17T23:12:38.000Z,32.50
2023-02-17T23:20:02.944Z,28.80
2023-02-17T23:23:56.495Z,31.50
2023-02-17T23:27:49.435Z,29.40
2023-02-17T23:31:43.188Z,29.70
2023-02-17T23:35:35.415Z,27.80
2023-02-17T23:39:29.142Z,30.20
2023-02-17T23:43:20.985Z,29.20
2023-02-17T23:47:16.998Z,32.20
2023-02-17T23:51:09.145Z,35.80
2023-02-17T23:55:04.100Z,24.60
2023-02-17T23:58:56.207Z,31.60
